ROMMA est une association bénévole à but non lucratif. Votre soutien est indispensable : ADHERER à ROMMA ou FAIRE un DON

Chambon - (38, Isère)

Oisans (2460 m)   Longitude: 06° 10' 42" E   Latitude: 45° 01' 32" N Station partenaire n°803
 

Détail journalier du     <<     >>

Température Humidité Vent Dir Rafale Dir. rafale Neige 1 Neige 2
Heure (°C) (%) (km/h) (km/h) (cm) (cm)
01:00 4.7372NNE6NNE03
02:00 5.5364OSO10OSO03
03:00 6.63411SO28SO03
04:00 5.53912SSO25SO03
05:00 5.43911SSO21SSO03
06:00 5.3387SSO22SSO03
07:00 5.6333OSO14OSO03
08:00 6.6256OSO19OSO03
09:00 6.8248OSO17OSO03
10:00 8.4199SO23OSO02
11:00 9.62111OSO25OSO03
12:00 9.42610OSO19O03
13:00 10.82710OSO21O03
14:00 11.23012OSO24OSO03
15:00 11.93416OSO26OSO03
16:00 12.52821OSO31OSO03
17:00 12.52923OSO32OSO03
18:00 11.92922SO31OSO03
19:00 10.92820SO29SO03
20:00 10.03018SO30SO03
21:00 9.62918SO30SO03
22:00 9.23515SO27SO03
23:00 8.7358SO25SO03
minuit 8.2384SO20SO02

Graphique du 11-10-2019

 

Serveur OMMA